sensor_id;sensor_type;location;lat;lon;timestamp;P1;durP1;ratioP1;P2;durP2;ratioP2
2710;SDS011;20721;47.402;8.550;2023-10-13T00:00:40;4.90;;;4.81;;
2710;SDS011;20721;47.402;8.550;2023-10-13T00:02:38;5.29;;;5.23;;
2710;SDS011;20721;47.402;8.550;2023-10-13T00:04:38;5.06;;;5.06;;
2710;SDS011;20721;47.402;8.550;2023-10-13T00:06:38;5.39;;;5.34;;
2710;SDS011;20721;47.402;8.550;2023-10-13T00:08:39;6.10;;;6.03;;
2710;SDS011;20721;47.402;8.550;2023-10-13T00:10:38;5.10;;;5.10;;
2710;SDS011;20721;47.402;8.550;2023-10-13T00:12:41;5.35;;;5.35;;
2710;SDS011;20721;47.402;8.550;2023-10-13T00:14:43;4.91;;;4.88;;
2710;SDS011;20721;47.402;8.550;2023-10-13T00:16:38;4.74;;;4.68;;
2710;SDS011;20721;47.402;8.550;2023-10-13T00:18:43;5.48;;;5.46;;
2710;SDS011;20721;47.402;8.550;2023-10-13T00:21:41;4.80;;;4.79;;
2710;SDS011;20721;47.402;8.550;2023-10-13T00:23:38;5.02;;;5.02;;
2710;SDS011;20721;47.402;8.550;2023-10-13T00:25:38;4.53;;;4.53;;
2710;SDS011;20721;47.402;8.550;2023-10-13T00:27:38;4.45;;;4.45;;
2710;SDS011;20721;47.402;8.550;2023-10-13T00:29:40;4.74;;;4.73;;
2710;SDS011;20721;47.402;8.550;2023-10-13T00:31:44;3.99;;;3.97;;
2710;SDS011;20721;47.402;8.550;2023-10-13T00:33:38;5.02;;;5.02;;
2710;SDS011;20721;47.402;8.550;2023-10-13T00:35:42;4.86;;;4.83;;
2710;SDS011;20721;47.402;8.550;2023-10-13T00:37:39;4.50;;;4.47;;
2710;SDS011;20721;47.402;8.550;2023-10-13T00:39:38;4.42;;;4.41;;
2710;SDS011;20721;47.402;8.550;2023-10-13T00:41:48;4.54;;;4.51;;
2710;SDS011;20721;47.402;8.550;2023-10-13T00:43:43;3.89;;;3.87;;
2710;SDS011;20721;47.402;8.550;2023-10-13T00:45:46;4.74;;;4.67;;
2710;SDS011;20721;47.402;8.550;2023-10-13T00:47:48;3.97;;;3.92;;
2710;SDS011;20721;47.402;8.550;2023-10-13T00:50:40;3.88;;;3.87;;
2710;SDS011;20721;47.402;8.550;2023-10-13T00:52:40;3.97;;;3.97;;
2710;SDS011;20721;47.402;8.550;2023-10-13T00:54:38;4.06;;;4.06;;
2710;SDS011;20721;47.402;8.550;2023-10-13T00:56:38;4.18;;;4.18;;
2710;SDS011;20721;47.402;8.550;2023-10-13T01:00:39;4.50;;;4.50;;
2710;SDS011;20721;47.402;8.550;2023-10-13T01:02:45;4.16;;;4.14;;
2710;SDS011;20721;47.402;8.550;2023-10-13T01:04:42;3.80;;;3.77;;
2710;SDS011;20721;47.402;8.550;2023-10-13T01:06:38;4.08;;;4.07;;
2710;SDS011;20721;47.402;8.550;2023-10-13T01:08:41;4.36;;;4.36;;
2710;SDS011;20721;47.402;8.550;2023-10-13T01:10:38;3.97;;;3.97;;
2710;SDS011;20721;47.402;8.550;2023-10-13T01:13:41;3.87;;;3.86;;
2710;SDS011;20721;47.402;8.550;2023-10-13T01:17:41;4.29;;;4.29;;
2710;SDS011;20721;47.402;8.550;2023-10-13T01:21:39;3.68;;;3.68;;
2710;SDS011;20721;47.402;8.550;2023-10-13T01:23:38;4.28;;;4.28;;
2710;SDS011;20721;47.402;8.550;2023-10-13T01:25:38;4.65;;;4.65;;
2710;SDS011;20721;47.402;8.550;2023-10-13T01:27:38;4.41;;;4.38;;
2710;SDS011;20721;47.402;8.550;2023-10-13T01:29:39;4.63;;;4.58;;
2710;SDS011;20721;47.402;8.550;2023-10-13T01:31:41;4.01;;;3.95;;
2710;SDS011;20721;47.402;8.550;2023-10-13T01:33:39;4.37;;;4.35;;
2710;SDS011;20721;47.402;8.550;2023-10-13T01:37:38;5.04;;;5.01;;
2710;SDS011;20721;47.402;8.550;2023-10-13T01:39:38;4.96;;;4.94;;
2710;SDS011;20721;47.402;8.550;2023-10-13T01:41:41;4.37;;;4.27;;
2710;SDS011;20721;47.402;8.550;2023-10-13T01:43:38;3.86;;;3.74;;
2710;SDS011;20721;47.402;8.550;2023-10-13T01:45:39;4.45;;;4.42;;
2710;SDS011;20721;47.402;8.550;2023-10-13T01:47:38;4.91;;;4.89;;
2710;SDS011;20721;47.402;8.550;2023-10-13T01:49:38;4.25;;;4.23;;
2710;SDS011;20721;47.402;8.550;2023-10-13T01:51:38;3.81;;;3.80;;
2710;SDS011;20721;47.402;8.550;2023-10-13T01:53:39;4.21;;;4.20;;
2710;SDS011;20721;47.402;8.550;2023-10-13T01:55:39;4.53;;;4.46;;
2710;SDS011;20721;47.402;8.550;2023-10-13T01:57:38;4.29;;;4.23;;
2710;SDS011;20721;47.402;8.550;2023-10-13T02:00:41;4.43;;;4.38;;
2710;SDS011;20721;47.402;8.550;2023-10-13T02:02:39;4.28;;;4.22;;
2710;SDS011;20721;47.402;8.550;2023-10-13T02:04:38;3.89;;;3.87;;
2710;SDS011;20721;47.402;8.550;2023-10-13T02:06:43;4.54;;;4.50;;
2710;SDS011;20721;47.402;8.550;2023-10-13T02:08:38;3.78;;;3.73;;
2710;SDS011;20721;47.402;8.550;2023-10-13T02:10:40;4.32;;;4.24;;
2710;SDS011;20721;47.402;8.550;2023-10-13T02:13:39;4.50;;;4.48;;
2710;SDS011;20721;47.402;8.550;2023-10-13T02:15:45;4.24;;;4.24;;
2710;SDS011;20721;47.402;8.550;2023-10-13T02:17:38;4.27;;;4.27;;
2710;SDS011;20721;47.402;8.550;2023-10-13T02:19:39;4.33;;;4.32;;
2710;SDS011;20721;47.402;8.550;2023-10-13T02:21:41;4.11;;;4.11;;
2710;SDS011;20721;47.402;8.550;2023-10-13T02:23:40;4.57;;;4.54;;
2710;SDS011;20721;47.402;8.550;2023-10-13T02:26:41;4.14;;;4.14;;
2710;SDS011;20721;47.402;8.550;2023-10-13T02:28:43;4.79;;;4.79;;
2710;SDS011;20721;47.402;8.550;2023-10-13T02:30:41;4.63;;;4.63;;
2710;SDS011;20721;47.402;8.550;2023-10-13T02:33:41;5.06;;;5.02;;
2710;SDS011;20721;47.402;8.550;2023-10-13T02:35:49;4.77;;;4.71;;
2710;SDS011;20721;47.402;8.550;2023-10-13T02:37:38;4.58;;;4.55;;
2710;SDS011;20721;47.402;8.550;2023-10-13T02:39:42;4.68;;;4.65;;
2710;SDS011;20721;47.402;8.550;2023-10-13T02:41:39;3.94;;;3.89;;
2710;SDS011;20721;47.402;8.550;2023-10-13T02:44:40;5.03;;;4.93;;
2710;SDS011;20721;47.402;8.550;2023-10-13T02:46:40;4.34;;;4.29;;
2710;SDS011;20721;47.402;8.550;2023-10-13T02:48:49;4.98;;;4.89;;
2710;SDS011;20721;47.402;8.550;2023-10-13T02:50:43;4.35;;;4.27;;
2710;SDS011;20721;47.402;8.550;2023-10-13T02:52:38;5.11;;;5.02;;
2710;SDS011;20721;47.402;8.550;2023-10-13T02:54:41;4.52;;;4.40;;
2710;SDS011;20721;47.402;8.550;2023-10-13T02:56:38;4.31;;;4.20;;
2710;SDS011;20721;47.402;8.550;2023-10-13T02:58:48;4.64;;;4.47;;
2710;SDS011;20721;47.402;8.550;2023-10-13T03:00:41;4.71;;;4.58;;
2710;SDS011;20721;47.402;8.550;2023-10-13T03:04:39;5.36;;;5.32;;
2710;SDS011;20721;47.402;8.550;2023-10-13T03:08:38;4.98;;;4.93;;
2710;SDS011;20721;47.402;8.550;2023-10-13T03:10:38;4.88;;;4.81;;
2710;SDS011;20721;47.402;8.550;2023-10-13T03:13:38;4.37;;;4.33;;
2710;SDS011;20721;47.402;8.550;2023-10-13T03:15:41;4.99;;;4.96;;
2710;SDS011;20721;47.402;8.550;2023-10-13T03:17:46;4.15;;;4.15;;
2710;SDS011;20721;47.402;8.550;2023-10-13T03:20:41;4.77;;;4.69;;
2710;SDS011;20721;47.402;8.550;2023-10-13T03:22:42;4.37;;;4.34;;
2710;SDS011;20721;47.402;8.550;2023-10-13T03:24:46;5.17;;;5.10;;
2710;SDS011;20721;47.402;8.550;2023-10-13T03:26:38;4.66;;;4.61;;
2710;SDS011;20721;47.402;8.550;2023-10-13T03:28:44;3.46;;;3.42;;
2710;SDS011;20721;47.402;8.550;2023-10-13T03:30:45;3.93;;;3.90;;
2710;SDS011;20721;47.402;8.550;2023-10-13T03:32:40;3.87;;;3.86;;
2710;SDS011;20721;47.402;8.550;2023-10-13T03:34:39;3.56;;;3.56;;
2710;SDS011;20721;47.402;8.550;2023-10-13T03:36:49;4.43;;;4.41;;
2710;SDS011;20721;47.402;8.550;2023-10-13T03:38:38;4.29;;;4.29;;
2710;SDS011;20721;47.402;8.550;2023-10-13T03:40:38;4.40;;;4.40;;
2710;SDS011;20721;47.402;8.550;2023-10-13T03:42:38;4.42;;;4.40;;
2710;SDS011;20721;47.402;8.550;2023-10-13T03:44:40;5.27;;;5.24;;
2710;SDS011;20721;47.402;8.550;2023-10-13T03:46:40;4.79;;;4.77;;
2710;SDS011;20721;47.402;8.550;2023-10-13T03:48:38;4.31;;;4.26;;
2710;SDS011;20721;47.402;8.550;2023-10-13T03:50:40;4.82;;;4.70;;
2710;SDS011;20721;47.402;8.550;2023-10-13T03:52:44;4.56;;;4.48;;
2710;SDS011;20721;47.402;8.550;2023-10-13T03:54:40;4.47;;;4.41;;
2710;SDS011;20721;47.402;8.550;2023-10-13T03:57:38;4.27;;;4.25;;
2710;SDS011;20721;47.402;8.550;2023-10-13T03:59:45;4.34;;;4.34;;
2710;SDS011;20721;47.402;8.550;2023-10-13T04:01:42;4.05;;;4.05;;
2710;SDS011;20721;47.402;8.550;2023-10-13T04:05:48;3.91;;;3.91;;
2710;SDS011;20721;47.402;8.550;2023-10-13T04:07:48;3.89;;;3.86;;
2710;SDS011;20721;47.402;8.550;2023-10-13T04:10:48;4.26;;;4.25;;
2710;SDS011;20721;47.402;8.550;2023-10-13T04:12:48;4.84;;;4.80;;
2710;SDS011;20721;47.402;8.550;2023-10-13T04:14:50;4.21;;;4.19;;
2710;SDS011;20721;47.402;8.550;2023-10-13T04:19:40;4.42;;;4.42;;
2710;SDS011;20721;47.402;8.550;2023-10-13T04:21:49;4.28;;;4.28;;
2710;SDS011;20721;47.402;8.550;2023-10-13T04:24:47;4.63;;;4.61;;
2710;SDS011;20721;47.402;8.550;2023-10-13T04:26:48;4.09;;;4.09;;
2710;SDS011;20721;47.402;8.550;2023-10-13T04:28:39;4.18;;;4.18;;
2710;SDS011;20721;47.402;8.550;2023-10-13T04:30:49;4.12;;;4.11;;
2710;SDS011;20721;47.402;8.550;2023-10-13T04:32:38;4.21;;;4.20;;
2710;SDS011;20721;47.402;8.550;2023-10-13T04:34:48;4.16;;;4.14;;
2710;SDS011;20721;47.402;8.550;2023-10-13T04:36:38;4.57;;;4.57;;
2710;SDS011;20721;47.402;8.550;2023-10-13T04:38:45;3.65;;;3.65;;
2710;SDS011;20721;47.402;8.550;2023-10-13T04:40:50;3.94;;;3.91;;
2710;SDS011;20721;47.402;8.550;2023-10-13T04:42:48;4.47;;;4.44;;
2710;SDS011;20721;47.402;8.550;2023-10-13T04:44:39;4.22;;;4.19;;
2710;SDS011;20721;47.402;8.550;2023-10-13T04:46:48;4.97;;;4.93;;
2710;SDS011;20721;47.402;8.550;2023-10-13T04:48:38;4.86;;;4.78;;
2710;SDS011;20721;47.402;8.550;2023-10-13T04:50:46;4.97;;;4.96;;
2710;SDS011;20721;47.402;8.550;2023-10-13T04:52:48;4.57;;;4.53;;
2710;SDS011;20721;47.402;8.550;2023-10-13T04:54:50;4.13;;;4.09;;
2710;SDS011;20721;47.402;8.550;2023-10-13T04:56:48;4.19;;;4.11;;
2710;SDS011;20721;47.402;8.550;2023-10-13T04:58:42;4.59;;;4.54;;
2710;SDS011;20721;47.402;8.550;2023-10-13T05:01:38;4.16;;;4.16;;
2710;SDS011;20721;47.402;8.550;2023-10-13T05:03:49;3.91;;;3.89;;
2710;SDS011;20721;47.402;8.550;2023-10-13T05:06:48;4.76;;;4.67;;
2710;SDS011;20721;47.402;8.550;2023-10-13T05:08:48;4.55;;;4.55;;
2710;SDS011;20721;47.402;8.550;2023-10-13T05:10:48;5.28;;;5.16;;
2710;SDS011;20721;47.402;8.550;2023-10-13T05:13:48;4.97;;;4.94;;
2710;SDS011;20721;47.402;8.550;2023-10-13T05:16:49;4.54;;;4.50;;
2710;SDS011;20721;47.402;8.550;2023-10-13T05:18:48;5.19;;;5.15;;
2710;SDS011;20721;47.402;8.550;2023-10-13T05:20:48;4.46;;;4.46;;
2710;SDS011;20721;47.402;8.550;2023-10-13T05:22:48;4.82;;;4.82;;
2710;SDS011;20721;47.402;8.550;2023-10-13T05:24:48;5.20;;;5.19;;
2710;SDS011;20721;47.402;8.550;2023-10-13T05:27:48;4.93;;;4.93;;
2710;SDS011;20721;47.402;8.550;2023-10-13T05:29:50;4.56;;;4.56;;
2710;SDS011;20721;47.402;8.550;2023-10-13T05:31:49;4.38;;;4.38;;
2710;SDS011;20721;47.402;8.550;2023-10-13T05:33:48;4.87;;;4.82;;
2710;SDS011;20721;47.402;8.550;2023-10-13T05:35:48;5.67;;;5.56;;
2710;SDS011;20721;47.402;8.550;2023-10-13T05:37:48;5.24;;;5.23;;
2710;SDS011;20721;47.402;8.550;2023-10-13T05:39:48;5.94;;;5.88;;
2710;SDS011;20721;47.402;8.550;2023-10-13T05:41:48;5.38;;;5.22;;
2710;SDS011;20721;47.402;8.550;2023-10-13T05:43:49;5.80;;;5.62;;
2710;SDS011;20721;47.402;8.550;2023-10-13T05:45:48;5.58;;;5.33;;
2710;SDS011;20721;47.402;8.550;2023-10-13T05:47:50;4.80;;;4.69;;
2710;SDS011;20721;47.402;8.550;2023-10-13T05:49:48;4.31;;;4.27;;
2710;SDS011;20721;47.402;8.550;2023-10-13T05:51:46;5.31;;;5.27;;
2710;SDS011;20721;47.402;8.550;2023-10-13T05:53:48;4.11;;;4.11;;
2710;SDS011;20721;47.402;8.550;2023-10-13T05:55:49;4.66;;;4.66;;
2710;SDS011;20721;47.402;8.550;2023-10-13T05:57:48;4.45;;;4.45;;
2710;SDS011;20721;47.402;8.550;2023-10-13T05:59:48;4.87;;;4.85;;
2710;SDS011;20721;47.402;8.550;2023-10-13T06:01:49;4.65;;;4.59;;
2710;SDS011;20721;47.402;8.550;2023-10-13T06:03:50;4.31;;;4.26;;
2710;SDS011;20721;47.402;8.550;2023-10-13T06:05:48;4.13;;;4.00;;
2710;SDS011;20721;47.402;8.550;2023-10-13T06:07:48;4.33;;;4.12;;
2710;SDS011;20721;47.402;8.550;2023-10-13T06:09:48;6.59;;;6.06;;
2710;SDS011;20721;47.402;8.550;2023-10-13T06:11:48;6.57;;;5.88;;
2710;SDS011;20721;47.402;8.550;2023-10-13T06:13:48;6.91;;;6.01;;
2710;SDS011;20721;47.402;8.550;2023-10-13T06:15:48;12.73;;;9.94;;
2710;SDS011;20721;47.402;8.550;2023-10-13T06:17:49;18.85;;;12.92;;
2710;SDS011;20721;47.402;8.550;2023-10-13T06:19:50;14.41;;;10.24;;
2710;SDS011;20721;47.402;8.550;2023-10-13T06:21:49;12.40;;;9.19;;
2710;SDS011;20721;47.402;8.550;2023-10-13T06:25:50;8.72;;;7.15;;
2710;SDS011;20721;47.402;8.550;2023-10-13T06:27:49;5.78;;;5.16;;
2710;SDS011;20721;47.402;8.550;2023-10-13T06:29:38;6.68;;;6.02;;
2710;SDS011;20721;47.402;8.550;2023-10-13T06:31:39;6.13;;;5.44;;
2710;SDS011;20721;47.402;8.550;2023-10-13T06:33:39;5.87;;;5.28;;
2710;SDS011;20721;47.402;8.550;2023-10-13T06:35:39;6.34;;;5.77;;
2710;SDS011;20721;47.402;8.550;2023-10-13T06:37:42;6.01;;;5.65;;
2710;SDS011;20721;47.402;8.550;2023-10-13T06:39:46;5.09;;;4.88;;
2710;SDS011;20721;47.402;8.550;2023-10-13T06:41:42;5.04;;;4.84;;
2710;SDS011;20721;47.402;8.550;2023-10-13T06:43:43;6.99;;;6.49;;
2710;SDS011;20721;47.402;8.550;2023-10-13T06:45:39;5.59;;;5.22;;
2710;SDS011;20721;47.402;8.550;2023-10-13T06:47:39;4.83;;;4.63;;
2710;SDS011;20721;47.402;8.550;2023-10-13T06:49:39;5.06;;;4.79;;
2710;SDS011;20721;47.402;8.550;2023-10-13T06:51:41;4.82;;;4.61;;
2710;SDS011;20721;47.402;8.550;2023-10-13T06:53:40;4.94;;;4.76;;
2710;SDS011;20721;47.402;8.550;2023-10-13T06:55:48;20.86;;;15.44;;
2710;SDS011;20721;47.402;8.550;2023-10-13T06:57:44;26.63;;;17.73;;
2710;SDS011;20721;47.402;8.550;2023-10-13T06:59:43;13.67;;;9.67;;
2710;SDS011;20721;47.402;8.550;2023-10-13T07:01:39;10.62;;;8.09;;
2710;SDS011;20721;47.402;8.550;2023-10-13T07:03:39;6.89;;;5.73;;
2710;SDS011;20721;47.402;8.550;2023-10-13T07:05:44;6.35;;;5.64;;
2710;SDS011;20721;47.402;8.550;2023-10-13T07:07:40;5.96;;;5.42;;
2710;SDS011;20721;47.402;8.550;2023-10-13T07:09:49;6.15;;;5.55;;
2710;SDS011;20721;47.402;8.550;2023-10-13T07:11:49;6.58;;;5.84;;
2710;SDS011;20721;47.402;8.550;2023-10-13T07:13:39;7.03;;;6.05;;
2710;SDS011;20721;47.402;8.550;2023-10-13T07:15:39;5.12;;;4.62;;
2710;SDS011;20721;47.402;8.550;2023-10-13T07:17:43;4.88;;;4.49;;
2710;SDS011;20721;47.402;8.550;2023-10-13T07:19:40;3.84;;;3.68;;
2710;SDS011;20721;47.402;8.550;2023-10-13T07:21:43;4.29;;;4.19;;
2710;SDS011;20721;47.402;8.550;2023-10-13T07:23:40;3.90;;;3.89;;
2710;SDS011;20721;47.402;8.550;2023-10-13T07:25:50;3.56;;;3.53;;
2710;SDS011;20721;47.402;8.550;2023-10-13T07:27:39;3.93;;;3.89;;
2710;SDS011;20721;47.402;8.550;2023-10-13T07:29:39;3.90;;;3.86;;
2710;SDS011;20721;47.402;8.550;2023-10-13T07:31:39;3.82;;;3.78;;
2710;SDS011;20721;47.402;8.550;2023-10-13T07:33:41;5.46;;;5.42;;
2710;SDS011;20721;47.402;8.550;2023-10-13T07:35:41;4.61;;;4.56;;
2710;SDS011;20721;47.402;8.550;2023-10-13T07:37:39;4.20;;;4.16;;
2710;SDS011;20721;47.402;8.550;2023-10-13T07:39:43;4.55;;;4.55;;
2710;SDS011;20721;47.402;8.550;2023-10-13T07:41:42;4.09;;;4.09;;
2710;SDS011;20721;47.402;8.550;2023-10-13T07:43:42;4.12;;;4.11;;
2710;SDS011;20721;47.402;8.550;2023-10-13T07:45:47;5.51;;;5.39;;
2710;SDS011;20721;47.402;8.550;2023-10-13T07:47:42;5.16;;;5.08;;
2710;SDS011;20721;47.402;8.550;2023-10-13T07:49:43;5.08;;;5.04;;
2710;SDS011;20721;47.402;8.550;2023-10-13T07:51:43;4.72;;;4.65;;
2710;SDS011;20721;47.402;8.550;2023-10-13T07:53:45;3.94;;;3.86;;
2710;SDS011;20721;47.402;8.550;2023-10-13T07:55:42;4.45;;;4.35;;
2710;SDS011;20721;47.402;8.550;2023-10-13T07:57:40;4.42;;;4.30;;
2710;SDS011;20721;47.402;8.550;2023-10-13T07:59:39;4.48;;;4.32;;
2710;SDS011;20721;47.402;8.550;2023-10-13T08:01:39;5.93;;;5.58;;
2710;SDS011;20721;47.402;8.550;2023-10-13T08:03:45;6.29;;;5.90;;
2710;SDS011;20721;47.402;8.550;2023-10-13T08:05:53;6.24;;;5.95;;
2710;SDS011;20721;47.402;8.550;2023-10-13T08:07:41;5.08;;;4.92;;
2710;SDS011;20721;47.402;8.550;2023-10-13T08:09:40;4.97;;;4.82;;
2710;SDS011;20721;47.402;8.550;2023-10-13T08:11:44;4.23;;;4.14;;
2710;SDS011;20721;47.402;8.550;2023-10-13T08:13:39;3.40;;;3.40;;
2710;SDS011;20721;47.402;8.550;2023-10-13T08:15:42;4.00;;;3.99;;
2710;SDS011;20721;47.402;8.550;2023-10-13T08:17:41;4.02;;;4.02;;
2710;SDS011;20721;47.402;8.550;2023-10-13T08:19:50;3.89;;;3.89;;
2710;SDS011;20721;47.402;8.550;2023-10-13T08:21:42;3.73;;;3.63;;
2710;SDS011;20721;47.402;8.550;2023-10-13T08:23:50;4.58;;;4.41;;
2710;SDS011;20721;47.402;8.550;2023-10-13T08:25:50;5.82;;;5.33;;
2710;SDS011;20721;47.402;8.550;2023-10-13T08:27:49;5.43;;;4.77;;
2710;SDS011;20721;47.402;8.550;2023-10-13T08:29:39;3.97;;;3.63;;
2710;SDS011;20721;47.402;8.550;2023-10-13T08:31:39;4.71;;;4.35;;
2710;SDS011;20721;47.402;8.550;2023-10-13T08:33:42;3.48;;;3.32;;
2710;SDS011;20721;47.402;8.550;2023-10-13T08:35:40;3.77;;;3.64;;
2710;SDS011;20721;47.402;8.550;2023-10-13T08:37:40;3.63;;;3.50;;
2710;SDS011;20721;47.402;8.550;2023-10-13T08:39:54;3.99;;;3.88;;
2710;SDS011;20721;47.402;8.550;2023-10-13T08:41:39;3.99;;;3.85;;
2710;SDS011;20721;47.402;8.550;2023-10-13T08:43:51;3.95;;;3.82;;
2710;SDS011;20721;47.402;8.550;2023-10-13T08:45:40;3.65;;;3.51;;
2710;SDS011;20721;47.402;8.550;2023-10-13T08:47:48;3.46;;;3.33;;
2710;SDS011;20721;47.402;8.550;2023-10-13T08:49:40;3.92;;;3.83;;
2710;SDS011;20721;47.402;8.550;2023-10-13T08:51:50;3.67;;;3.60;;
2710;SDS011;20721;47.402;8.550;2023-10-13T08:53:39;3.50;;;3.48;;
2710;SDS011;20721;47.402;8.550;2023-10-13T08:55:50;4.08;;;4.04;;
2710;SDS011;20721;47.402;8.550;2023-10-13T08:57:43;3.70;;;3.67;;
2710;SDS011;20721;47.402;8.550;2023-10-13T08:59:49;2.98;;;2.98;;
2710;SDS011;20721;47.402;8.550;2023-10-13T09:01:49;3.64;;;3.58;;
2710;SDS011;20721;47.402;8.550;2023-10-13T09:03:40;3.50;;;3.50;;
2710;SDS011;20721;47.402;8.550;2023-10-13T09:05:52;3.97;;;3.97;;
2710;SDS011;20721;47.402;8.550;2023-10-13T09:07:46;3.32;;;3.32;;
2710;SDS011;20721;47.402;8.550;2023-10-13T09:09:49;3.09;;;3.02;;
2710;SDS011;20721;47.402;8.550;2023-10-13T09:11:47;3.79;;;3.76;;
2710;SDS011;20721;47.402;8.550;2023-10-13T09:13:44;3.35;;;3.35;;
2710;SDS011;20721;47.402;8.550;2023-10-13T09:15:49;3.41;;;3.41;;
2710;SDS011;20721;47.402;8.550;2023-10-13T09:17:53;3.39;;;3.35;;
2710;SDS011;20721;47.402;8.550;2023-10-13T09:20:49;3.62;;;3.60;;
2710;SDS011;20721;47.402;8.550;2023-10-13T09:22:47;3.24;;;3.24;;
2710;SDS011;20721;47.402;8.550;2023-10-13T09:24:45;3.90;;;3.87;;
2710;SDS011;20721;47.402;8.550;2023-10-13T09:26:43;3.39;;;3.38;;
2710;SDS011;20721;47.402;8.550;2023-10-13T09:28:41;3.89;;;3.82;;
2710;SDS011;20721;47.402;8.550;2023-10-13T09:30:43;3.63;;;3.59;;
2710;SDS011;20721;47.402;8.550;2023-10-13T09:32:39;3.98;;;3.92;;
2710;SDS011;20721;47.402;8.550;2023-10-13T09:34:41;3.50;;;3.42;;
2710;SDS011;20721;47.402;8.550;2023-10-13T09:36:40;3.57;;;3.50;;
2710;SDS011;20721;47.402;8.550;2023-10-13T09:38:39;3.66;;;3.61;;
2710;SDS011;20721;47.402;8.550;2023-10-13T09:40:43;3.99;;;3.89;;
2710;SDS011;20721;47.402;8.550;2023-10-13T09:42:39;3.68;;;3.60;;
2710;SDS011;20721;47.402;8.550;2023-10-13T09:44:41;3.38;;;3.33;;
2710;SDS011;20721;47.402;8.550;2023-10-13T09:46:40;3.26;;;3.26;;
2710;SDS011;20721;47.402;8.550;2023-10-13T09:48:44;3.23;;;3.15;;
2710;SDS011;20721;47.402;8.550;2023-10-13T09:50:47;2.41;;;2.38;;
2710;SDS011;20721;47.402;8.550;2023-10-13T09:52:42;2.95;;;2.95;;
2710;SDS011;20721;47.402;8.550;2023-10-13T09:54:53;3.26;;;3.26;;
2710;SDS011;20721;47.402;8.550;2023-10-13T09:56:43;3.10;;;3.08;;
2710;SDS011;20721;47.402;8.550;2023-10-13T09:58:50;2.95;;;2.93;;
2710;SDS011;20721;47.402;8.550;2023-10-13T10:00:56;2.93;;;2.89;;
2710;SDS011;20721;47.402;8.550;2023-10-13T10:02:39;2.69;;;2.66;;
2710;SDS011;20721;47.402;8.550;2023-10-13T10:04:39;2.89;;;2.87;;
2710;SDS011;20721;47.402;8.550;2023-10-13T10:06:40;3.03;;;2.98;;
2710;SDS011;20721;47.402;8.550;2023-10-13T10:08:49;2.95;;;2.90;;
2710;SDS011;20721;47.402;8.550;2023-10-13T10:11:04;3.07;;;3.01;;
2710;SDS011;20721;47.402;8.550;2023-10-13T10:12:46;3.22;;;3.14;;
2710;SDS011;20721;47.402;8.550;2023-10-13T10:14:53;3.52;;;3.43;;
2710;SDS011;20721;47.402;8.550;2023-10-13T10:16:50;3.56;;;3.49;;
2710;SDS011;20721;47.402;8.550;2023-10-13T10:18:40;3.54;;;3.47;;
2710;SDS011;20721;47.402;8.550;2023-10-13T10:20:49;3.51;;;3.49;;
2710;SDS011;20721;47.402;8.550;2023-10-13T10:23:02;2.99;;;2.93;;
2710;SDS011;20721;47.402;8.550;2023-10-13T10:24:40;2.90;;;2.85;;
2710;SDS011;20721;47.402;8.550;2023-10-13T10:26:55;4.46;;;4.39;;
2710;SDS011;20721;47.402;8.550;2023-10-13T10:28:47;3.19;;;3.15;;
2710;SDS011;20721;47.402;8.550;2023-10-13T10:30:40;3.08;;;3.06;;
2710;SDS011;20721;47.402;8.550;2023-10-13T10:32:42;3.45;;;3.44;;
2710;SDS011;20721;47.402;8.550;2023-10-13T10:34:40;3.56;;;3.51;;
2710;SDS011;20721;47.402;8.550;2023-10-13T10:36:40;3.48;;;3.45;;
2710;SDS011;20721;47.402;8.550;2023-10-13T10:41:06;3.88;;;3.85;;
2710;SDS011;20721;47.402;8.550;2023-10-13T10:42:39;3.09;;;3.07;;
2710;SDS011;20721;47.402;8.550;2023-10-13T10:44:50;3.84;;;3.79;;
2710;SDS011;20721;47.402;8.550;2023-10-13T10:46:49;3.37;;;3.33;;
2710;SDS011;20721;47.402;8.550;2023-10-13T10:48:43;4.22;;;4.20;;
2710;SDS011;20721;47.402;8.550;2023-10-13T10:51:44;4.32;;;4.27;;
2710;SDS011;20721;47.402;8.550;2023-10-13T10:53:51;3.61;;;3.55;;
2710;SDS011;20721;47.402;8.550;2023-10-13T10:55:40;3.75;;;3.75;;
2710;SDS011;20721;47.402;8.550;2023-10-13T10:57:47;3.90;;;3.87;;
2710;SDS011;20721;47.402;8.550;2023-10-13T10:59:44;3.21;;;3.17;;
2710;SDS011;20721;47.402;8.550;2023-10-13T11:01:52;3.48;;;3.42;;
2710;SDS011;20721;47.402;8.550;2023-10-13T11:03:39;3.30;;;3.28;;
2710;SDS011;20721;47.402;8.550;2023-10-13T11:05:52;4.09;;;4.01;;
2710;SDS011;20721;47.402;8.550;2023-10-13T11:07:44;3.92;;;3.84;;
2710;SDS011;20721;47.402;8.550;2023-10-13T11:09:47;3.47;;;3.42;;
2710;SDS011;20721;47.402;8.550;2023-10-13T11:11:45;3.17;;;3.17;;
2710;SDS011;20721;47.402;8.550;2023-10-13T11:13:57;3.23;;;3.23;;
2710;SDS011;20721;47.402;8.550;2023-10-13T11:15:51;3.28;;;3.28;;
2710;SDS011;20721;47.402;8.550;2023-10-13T11:17:50;3.11;;;3.10;;
2710;SDS011;20721;47.402;8.550;2023-10-13T11:19:47;3.45;;;3.39;;
2710;SDS011;20721;47.402;8.550;2023-10-13T11:22:47;3.28;;;3.28;;
2710;SDS011;20721;47.402;8.550;2023-10-13T11:24:48;3.54;;;3.53;;
2710;SDS011;20721;47.402;8.550;2023-10-13T11:26:43;3.28;;;3.26;;
2710;SDS011;20721;47.402;8.550;2023-10-13T11:28:49;3.50;;;3.50;;
2710;SDS011;20721;47.402;8.550;2023-10-13T11:30:41;3.18;;;3.18;;
2710;SDS011;20721;47.402;8.550;2023-10-13T11:33:43;3.67;;;3.67;;
2710;SDS011;20721;47.402;8.550;2023-10-13T11:35:50;3.84;;;3.84;;
2710;SDS011;20721;47.402;8.550;2023-10-13T11:37:47;3.73;;;3.69;;
2710;SDS011;20721;47.402;8.550;2023-10-13T11:39:49;3.34;;;3.34;;
2710;SDS011;20721;47.402;8.550;2023-10-13T11:41:45;3.81;;;3.81;;
2710;SDS011;20721;47.402;8.550;2023-10-13T11:45:41;3.27;;;3.27;;
2710;SDS011;20721;47.402;8.550;2023-10-13T11:47:50;2.97;;;2.95;;
2710;SDS011;20721;47.402;8.550;2023-10-13T11:49:39;3.33;;;3.30;;
2710;SDS011;20721;47.402;8.550;2023-10-13T11:51:46;3.78;;;3.72;;
2710;SDS011;20721;47.402;8.550;2023-10-13T11:53:39;4.19;;;4.15;;
2710;SDS011;20721;47.402;8.550;2023-10-13T11:55:39;4.16;;;4.13;;
2710;SDS011;20721;47.402;8.550;2023-10-13T11:57:39;3.24;;;3.20;;
2710;SDS011;20721;47.402;8.550;2023-10-13T11:59:39;3.48;;;3.46;;
2710;SDS011;20721;47.402;8.550;2023-10-13T12:01:51;3.98;;;3.95;;
2710;SDS011;20721;47.402;8.550;2023-10-13T12:03:51;3.18;;;3.18;;
2710;SDS011;20721;47.402;8.550;2023-10-13T12:06:49;5.15;;;5.14;;
2710;SDS011;20721;47.402;8.550;2023-10-13T12:08:43;3.25;;;3.25;;
2710;SDS011;20721;47.402;8.550;2023-10-13T12:10:49;4.07;;;4.07;;
2710;SDS011;20721;47.402;8.550;2023-10-13T12:12:41;3.70;;;3.69;;
2710;SDS011;20721;47.402;8.550;2023-10-13T12:14:46;3.00;;;2.97;;
2710;SDS011;20721;47.402;8.550;2023-10-13T12:16:44;3.52;;;3.45;;
2710;SDS011;20721;47.402;8.550;2023-10-13T12:18:39;3.38;;;3.34;;
2710;SDS011;20721;47.402;8.550;2023-10-13T12:20:42;4.51;;;4.48;;
2710;SDS011;20721;47.402;8.550;2023-10-13T12:22:50;3.55;;;3.55;;
2710;SDS011;20721;47.402;8.550;2023-10-13T12:24:47;3.80;;;3.80;;
2710;SDS011;20721;47.402;8.550;2023-10-13T12:26:42;3.73;;;3.69;;
2710;SDS011;20721;47.402;8.550;2023-10-13T12:28:41;2.97;;;2.97;;
2710;SDS011;20721;47.402;8.550;2023-10-13T12:30:49;3.30;;;3.30;;
2710;SDS011;20721;47.402;8.550;2023-10-13T12:32:41;3.17;;;3.13;;
2710;SDS011;20721;47.402;8.550;2023-10-13T12:34:51;4.16;;;4.15;;
2710;SDS011;20721;47.402;8.550;2023-10-13T12:36:46;3.19;;;3.19;;
2710;SDS011;20721;47.402;8.550;2023-10-13T12:38:50;3.36;;;3.36;;
2710;SDS011;20721;47.402;8.550;2023-10-13T12:40:50;3.64;;;3.63;;
2710;SDS011;20721;47.402;8.550;2023-10-13T12:42:51;3.01;;;3.00;;
2710;SDS011;20721;47.402;8.550;2023-10-13T12:44:49;3.31;;;3.27;;
2710;SDS011;20721;47.402;8.550;2023-10-13T12:46:51;3.65;;;3.57;;
2710;SDS011;20721;47.402;8.550;2023-10-13T12:48:50;3.67;;;3.55;;
2710;SDS011;20721;47.402;8.550;2023-10-13T12:50:50;3.83;;;3.75;;
2710;SDS011;20721;47.402;8.550;2023-10-13T12:52:43;3.53;;;3.43;;
2710;SDS011;20721;47.402;8.550;2023-10-13T12:54:49;3.24;;;3.18;;
2710;SDS011;20721;47.402;8.550;2023-10-13T12:56:40;3.76;;;3.68;;
2710;SDS011;20721;47.402;8.550;2023-10-13T12:58:40;3.57;;;3.54;;